Lanett, Alabama
Current Conditions -  °F | °C
As of 2:35 AM on Sunday 26 Oct 2014 (Local Time) from KLGC Reporting Station
Haze Haze  
Wind Chill: 53°   Ceiling: 700
Heat Index: 53°   Visibility: 1.2mi
Dew Point: 53°   Wind: 0mph
Humidity: 99%   Direction: NA
Pressure: 30.02"   Gusts: NA
Location:  32.87°N, 85.19°W
Report Text: KLGC 260735Z AUTO 00000KT 1 1/4SM BR VV007 12/11 A3002 RMK AO2 T01150114
Loading
Personal Weather Stations






























Interactive Weather Map
Tropical Storm Tracking
New forecast layout! Learn more

10-Day Weather Forecast

Advertisements
Track Severe Weather on mobile